sensor_id;sensor_type;location;lat;lon;timestamp;pressure;altitude;pressure_sealevel;temperature;humidity
46382;BME280;66809;52.974;-2.514;2023-03-14T00:01:53;981.0515810895536;;;3.0693093844131463;44.76501540168595
46382;BME280;66809;52.974;-2.514;2023-03-14T00:03:53;981.0914699142363;;;3.046832587466325;44.67726017861074
46382;BME280;66809;52.974;-2.514;2023-03-14T00:05:53;981.1298353001108;;;3.034989265114552;44.61908244433864
46382;BME280;66809;52.974;-2.514;2023-03-14T00:07:53;981.1653511473784;;;3.011997328176138;44.574990495819584
46382;BME280;66809;52.974;-2.514;2023-03-14T00:09:53;981.201141297306;;;2.9929174076626777;44.53873008269576
46382;BME280;66809;52.974;-2.514;2023-03-14T00:11:53;981.2389063565704;;;2.9684942554250027;44.492518249399346
46382;BME280;66809;52.974;-2.514;2023-03-14T00:13:53;981.2805370407423;;;2.950785135951907;44.4644059427509
46382;BME280;66809;52.974;-2.514;2023-03-14T00:15:53;981.3228158775381;;;2.9232984966657978;44.44309531429283
46382;BME280;66809;52.974;-2.514;2023-03-14T00:17:53;981.3648276933266;;;2.9046219052752056;44.43919792049872
46382;BME280;66809;52.974;-2.514;2023-03-14T00:19:53;981.406268700306;;;2.888114237725352;44.42765957150984
46382;BME280;66809;52.974;-2.514;2023-03-14T00:21:53;981.4495550882923;;;2.8537190116634554;44.423609917324846
46382;BME280;66809;52.974;-2.514;2023-03-14T00:23:53;981.4927990932332;;;2.8239371953023094;44.42436946847078
46382;BME280;66809;52.974;-2.514;2023-03-14T00:25:53;981.5397869892331;;;2.794373817460082;44.43984584258107
46382;BME280;66809;52.974;-2.514;2023-03-14T00:27:53;981.5863757182373;;;2.7642727540343537;44.47900511610241
46382;BME280;66809;52.974;-2.514;2023-03-14T00:29:53;981.6302069596542;;;2.741252697573188;44.512794512022666
46382;BME280;66809;52.974;-2.514;2023-03-14T00:31:53;981.676203930258;;;2.7117215352628916;44.52832381054902
46382;BME280;66809;52.974;-2.514;2023-03-14T00:33:54;981.7234807175435;;;2.6899364045398357;44.577545143872605
46382;BME280;66809;52.974;-2.514;2023-03-14T00:35:55;981.7695776846952;;;2.688354559317497;44.61661453160918
46382;BME280;66809;52.974;-2.514;2023-03-14T00:37:53;981.8148176990379;;;2.671887438938175;44.65041721560876
46382;BME280;66809;52.974;-2.514;2023-03-14T00:39:53;981.8607440975325;;;2.6696687124770393;44.69447582435903
46382;BME280;66809;52.974;-2.514;2023-03-14T00:41:53;981.9066289717427;;;2.653866942318398;44.70434583777444
46382;BME280;66809;52.974;-2.514;2023-03-14T00:43:53;981.9524474213724;;;2.6520027659770915;44.72552687001414
46382;BME280;66809;52.974;-2.514;2023-03-14T00:45:54;981.9953769472264;;;2.640753264059927;44.73701426731829
46382;BME280;66809;52.974;-2.514;2023-03-14T00:47:53;982.0381986757172;;;2.649720217520705;44.779220863421195
46382;BME280;66809;52.974;-2.514;2023-03-14T00:49:53;982.0835471069172;;;2.660539555178143;44.815998908837614
46382;BME280;66809;52.974;-2.514;2023-03-14T00:51:53;982.1302101203418;;;2.670504970326397;44.82711720991924
46382;BME280;66809;52.974;-2.514;2023-03-14T00:53:53;982.1769565995157;;;2.6805345823513926;44.81296851186815
46382;BME280;66809;52.974;-2.514;2023-03-14T00:55:53;982.224443739146;;;2.691757191713082;44.79900879939334
46382;BME280;66809;52.974;-2.514;2023-03-14T00:57:53;982.2664580591534;;;2.699814580020286;44.789272891603744
46382;BME280;66809;52.974;-2.514;2023-03-14T00:59:53;982.3075023228545;;;2.719870536390955;44.777059285376254
46382;BME280;66809;52.974;-2.514;2023-03-14T01:01:53;982.3476343113665;;;2.736975857923481;44.73652625016678
46382;BME280;66809;52.974;-2.514;2023-03-14T01:03:55;982.3888217121977;;;2.760199073764971;44.711118648916155
46382;BME280;66809;52.974;-2.514;2023-03-14T01:05:53;982.4327618026596;;;2.784140465539408;44.67651011199414
46382;BME280;66809;52.974;-2.514;2023-03-14T01:07:53;982.4783999993649;;;2.8181904052110003;44.6362319187117
46382;BME280;66809;52.974;-2.514;2023-03-14T01:09:53;982.5223243861789;;;2.8592383722801142;44.584466205889925
46382;BME280;66809;52.974;-2.514;2023-03-14T01:11:53;982.5625130140439;;;2.8836552153840866;44.511604099973916
46382;BME280;66809;52.974;-2.514;2023-03-14T01:13:53;982.6019189452933;;;2.9129936228649713;44.451029718413125
46382;BME280;66809;52.974;-2.514;2023-03-14T01:15:53;982.6405859631973;;;2.9564110957945084;44.38751812819273
46382;BME280;66809;52.974;-2.514;2023-03-14T01:17:53;982.6792069082652;;;3.0026598804942677;44.30502095666818
46382;BME280;66809;52.974;-2.514;2023-03-14T01:19:53;982.7144444763154;;;3.0485406633897956;44.21349469210519
46382;BME280;66809;52.974;-2.514;2023-03-14T01:21:53;982.7467885595881;;;3.0898006407344285;44.1062390256091
46382;BME280;66809;52.974;-2.514;2023-03-14T01:23:55;982.7799677988562;;;3.1331457781827137;43.988538964671434
46382;BME280;66809;52.974;-2.514;2023-03-14T01:25:53;982.8113168639757;;;3.1754222154014204;43.82955516779535
46382;BME280;66809;52.974;-2.514;2023-03-14T01:27:53;982.8410298724133;;;3.218871828188696;43.672730452637175
46382;BME280;66809;52.974;-2.514;2023-03-14T01:29:53;982.8764884647459;;;3.2557038048576343;43.523423885343846
46382;BME280;66809;52.974;-2.514;2023-03-14T01:31:53;982.9076476924989;;;3.2687934347086323;43.39322435360257
46382;BME280;66809;52.974;-2.514;2023-03-14T01:33:54;982.9395485176378;;;3.272574047437005;43.286606097439595
46382;BME280;66809;52.974;-2.514;2023-03-14T01:35:53;982.9707228130253;;;3.2539583029224324;43.199502181385284
46382;BME280;66809;52.974;-2.514;2023-03-14T01:37:53;983.0054780166627;;;3.2460775084288773;43.152583986046324
46382;BME280;66809;52.974;-2.514;2023-03-14T01:39:53;983.0394579481984;;;3.227164337127166;43.10263081763086
46382;BME280;66809;52.974;-2.514;2023-03-14T01:41:53;983.071861857766;;;3.198693416140125;43.06166620693412
46382;BME280;66809;52.974;-2.514;2023-03-14T01:43:53;983.1051494785837;;;3.178913222533212;43.05240928035167
46382;BME280;66809;52.974;-2.514;2023-03-14T01:46:18;983.1366865140626;;;3.1574335835319247;43.027434319951084
46382;BME280;66809;52.974;-2.514;2023-03-14T01:47:53;983.1693853385664;;;3.1219595923044836;42.989455086731446
46382;BME280;66809;52.974;-2.514;2023-03-14T01:49:57;983.1999214538386;;;3.0725271606957105;42.96430120854153
46382;BME280;66809;52.974;-2.514;2023-03-14T01:51:56;983.2311673837959;;;3.0376270612808725;42.971717678233794
46382;BME280;66809;52.974;-2.514;2023-03-14T01:53:58;983.2623731716218;;;2.9939088236624483;42.975907976692184
46382;BME280;66809;52.974;-2.514;2023-03-14T01:55:55;983.296910590161;;;2.942182752317756;42.991204094709325
46382;BME280;66809;52.974;-2.514;2023-03-14T01:57:55;983.3363661818967;;;2.897555468273489;43.013775594515735
46382;BME280;66809;52.974;-2.514;2023-03-14T01:59:57;983.3789957277583;;;2.8680502770899166;43.05276192691689
46382;BME280;66809;52.974;-2.514;2023-03-14T02:01:54;983.4206797420283;;;2.8328396033730403;43.11248496840623
46382;BME280;66809;52.974;-2.514;2023-03-14T02:03:55;983.4621686479162;;;2.8138281683568565;43.16327669271588
46382;BME280;66809;52.974;-2.514;2023-03-14T02:05:54;983.5028228855736;;;2.7815176537935873;43.20278015384513
46382;BME280;66809;52.974;-2.514;2023-03-14T02:07:55;983.5444666523979;;;2.751011739084959;43.25438867757977
46382;BME280;66809;52.974;-2.514;2023-03-14T02:09:54;983.5869667494529;;;2.71752636093276;43.315986877786216
46382;BME280;66809;52.974;-2.514;2023-03-14T02:11:53;983.6306098832504;;;2.6929599571700296;43.413422437128766
46382;BME280;66809;52.974;-2.514;2023-03-14T02:13:53;983.6715895447243;;;2.667605465824757;43.494566739943494
46382;BME280;66809;52.974;-2.514;2023-03-14T02:15:53;983.7171095058928;;;2.638327485986627;43.57368626919945
46382;BME280;66809;52.974;-2.514;2023-03-14T02:17:53;983.7613943350335;;;2.5947503325206807;43.675062032585664
46382;BME280;66809;52.974;-2.514;2023-03-14T02:20:06;983.8098128125881;;;2.5570272624611703;43.787245868069164
46382;BME280;66809;52.974;-2.514;2023-03-14T02:21:57;983.860879099913;;;2.5210685401078483;43.89945163659061
46382;BME280;66809;52.974;-2.514;2023-03-14T02:24:02;983.9112694167595;;;2.489260103065518;44.03355211533298
46382;BME280;66809;52.974;-2.514;2023-03-14T02:25:57;983.9637359532876;;;2.457890262670738;44.199702586086545
46382;BME280;66809;52.974;-2.514;2023-03-14T02:27:53;984.0214287417568;;;2.416624998361411;44.3759657648926
46382;BME280;66809;52.974;-2.514;2023-03-14T02:29:56;984.0763698432785;;;2.369921221219855;44.5837665071414
46382;BME280;66809;52.974;-2.514;2023-03-14T02:31:53;984.1367739009105;;;2.342004420288193;44.7946019984272
46382;BME280;66809;52.974;-2.514;2023-03-14T02:33:53;984.196906054173;;;2.2972823612741373;44.99189851378974
46382;BME280;66809;52.974;-2.514;2023-03-14T02:35:56;984.259356052217;;;2.2616184092750853;45.190922496740214
46382;BME280;66809;52.974;-2.514;2023-03-14T02:37:56;984.3186044872008;;;2.2243145890645124;45.373272130186336
46382;BME280;66809;52.974;-2.514;2023-03-14T02:39:53;984.3787808865562;;;2.173451147979896;45.58148892714691
46382;BME280;66809;52.974;-2.514;2023-03-14T02:41:53;984.4430653495092;;;2.1318459134354324;45.80894760564699
46382;BME280;66809;52.974;-2.514;2023-03-14T02:43:53;984.5069979358304;;;2.0796430789945193;46.00102884795768
46382;BME280;66809;52.974;-2.514;2023-03-14T02:45:54;984.5730492410106;;;2.027369840380743;46.19551353249117
46382;BME280;66809;52.974;-2.514;2023-03-14T02:47:55;984.6388219810157;;;1.9752478959751676;46.394251136829986
46382;BME280;66809;52.974;-2.514;2023-03-14T02:49:58;984.706005115104;;;1.9263993011764873;46.58096582409644
46382;BME280;66809;52.974;-2.514;2023-03-14T02:51:53;984.7740032385539;;;1.8574787168338185;46.768586907599385
46382;BME280;66809;52.974;-2.514;2023-03-14T02:53:53;984.8446114795435;;;1.7954217291021233;46.98863616251158
46382;BME280;66809;52.974;-2.514;2023-03-14T02:55:53;984.9154092110633;;;1.744699497796779;47.22066256398651
46382;BME280;66809;52.974;-2.514;2023-03-14T02:57:53;984.9841411967458;;;1.6951671598806448;47.44135487919216
46382;BME280;66809;52.974;-2.514;2023-03-14T02:59:53;985.0537575160556;;;1.6286071074977844;47.649788519697296
46382;BME280;66809;52.974;-2.514;2023-03-14T03:01:53;985.1222033586059;;;1.571760276687652;47.86076292462495
46382;BME280;66809;52.974;-2.514;2023-03-14T03:03:53;985.1901645359088;;;1.5037260799991237;48.06282759104286
46382;BME280;66809;52.974;-2.514;2023-03-14T03:05:54;985.2587611793416;;;1.4526522209777608;48.26189659143651
46382;BME280;66809;52.974;-2.514;2023-03-14T03:07:53;985.327697749995;;;1.397875023692354;48.44153103516185
46382;BME280;66809;52.974;-2.514;2023-03-14T03:09:53;985.3972212921764;;;1.3441465929967686;48.61564897780627
46382;BME280;66809;52.974;-2.514;2023-03-14T03:11:53;985.46752849686;;;1.3001317061268887;48.76746170547811
46382;BME280;66809;52.974;-2.514;2023-03-14T03:13:53;985.5391293758217;;;1.2520841181311158;48.89468273453785
46382;BME280;66809;52.974;-2.514;2023-03-14T03:15:53;985.6080575359665;;;1.1949883715382126;49.02218937734494
46382;BME280;66809;52.974;-2.514;2023-03-14T03:17:54;985.6794101919737;;;1.1514255735994696;49.146077432961036
46382;BME280;66809;52.974;-2.514;2023-03-14T03:19:53;985.7498411029708;;;1.106367343488585;49.26523862645558
46382;BME280;66809;52.974;-2.514;2023-03-14T03:21:53;985.819425117542;;;1.0623509071813904;49.397368871901016
46382;BME280;66809;52.974;-2.514;2023-03-14T03:23:53;985.8898251920796;;;1.010899353722826;49.51957123085609
46382;BME280;66809;52.974;-2.514;2023-03-14T03:25:53;985.9573124494726;;;0.9601671511699502;49.63377262095924
46382;BME280;66809;52.974;-2.514;2023-03-14T03:27:53;986.0210955704144;;;0.912426119634231;49.73912040837106
46382;BME280;66809;52.974;-2.514;2023-03-14T03:29:53;986.0829154535007;;;0.8704769059566427;49.815322095600685
46382;BME280;66809;52.974;-2.514;2023-03-14T03:31:53;986.1421119121444;;;0.8418474711702812;49.86620800111263
46382;BME280;66809;52.974;-2.514;2023-03-14T03:33:54;986.2017670036674;;;0.8248012214341507;49.893597039404504
46382;BME280;66809;52.974;-2.514;2023-03-14T03:35:53;986.2623021494638;;;0.8086540548529075;49.908016690130424
46382;BME280;66809;52.974;-2.514;2023-03-14T03:37:53;986.3237084429778;;;0.7927437180566012;49.90995870581997
46382;BME280;66809;52.974;-2.514;2023-03-14T03:39:53;986.3849652872475;;;0.790349371752882;49.8875148933885
46382;BME280;66809;52.974;-2.514;2023-03-14T03:41:53;986.444961542764;;;0.784088876755667;49.845785614784674
46382;BME280;66809;52.974;-2.514;2023-03-14T03:43:53;986.5062141837643;;;0.7790365602918692;49.82525857201731
46382;BME280;66809;52.974;-2.514;2023-03-14T03:45:53;986.5678499357548;;;0.7811940868923;49.808363425146176
46382;BME280;66809;52.974;-2.514;2023-03-14T03:47:53;986.6302465443702;;;0.7768370267390167;49.78986392629325
46382;BME280;66809;52.974;-2.514;2023-03-14T03:49:53;986.6923795262649;;;0.7827126364468271;49.76557992298803
46382;BME280;66809;52.974;-2.514;2023-03-14T03:51:53;986.7545752668483;;;0.7984344410248858;49.73504516666028
46382;BME280;66809;52.974;-2.514;2023-03-14T03:53:53;986.8171248774331;;;0.8131733067604453;49.68995365941989
46382;BME280;66809;52.974;-2.514;2023-03-14T03:55:53;986.8771965693657;;;0.8248677699732325;49.64036810828858
46382;BME280;66809;52.974;-2.514;2023-03-14T03:57:53;986.938867646927;;;0.8185952228186238;49.59841007139607
46382;BME280;66809;52.974;-2.514;2023-03-14T03:59:53;986.9991430496157;;;0.8078668981704601;49.56474606739335
46382;BME280;66809;52.974;-2.514;2023-03-14T04:01:53;987.060746362733;;;0.7946150717432838;49.53692131347025
46382;BME280;66809;52.974;-2.514;2023-03-14T04:03:53;987.1236448013967;;;0.7704653514879751;49.520136506842384
46382;BME280;66809;52.974;-2.514;2023-03-14T04:06:02;987.1877957467382;;;0.7439564405877128;49.51822466624531
46382;BME280;66809;52.974;-2.514;2023-03-14T04:07:53;987.2533157875104;;;0.7196974846579489;49.518091657066584
46382;BME280;66809;52.974;-2.514;2023-03-14T04:09:53;987.3198881022429;;;0.6912211211275605;49.52630180019383
46382;BME280;66809;52.974;-2.514;2023-03-14T04:11:53;987.3868645511537;;;0.6541251022395502;49.537935115023814
46382;BME280;66809;52.974;-2.514;2023-03-14T04:13:53;987.4545093152244;;;0.6162797977424219;49.570644407951626
46382;BME280;66809;52.974;-2.514;2023-03-14T04:15:54;987.5223184231513;;;0.5878354673477839;49.605515361731975
46382;BME280;66809;52.974;-2.514;2023-03-14T04:17:56;987.5909452753043;;;0.5564469420517325;49.64286627684926
46382;BME280;66809;52.974;-2.514;2023-03-14T04:19:53;987.6608778508066;;;0.5206111654929464;49.67289754255485
46382;BME280;66809;52.974;-2.514;2023-03-14T04:21:53;987.7300323942069;;;0.493472101131314;49.69550967088795
46382;BME280;66809;52.974;-2.514;2023-03-14T04:23:53;987.7992265975407;;;0.47176712306808966;49.71264768463123
46382;BME280;66809;52.974;-2.514;2023-03-14T04:25:53;987.8695506998287;;;0.43654786850113153;49.73258964533782
46382;BME280;66809;52.974;-2.514;2023-03-14T04:27:53;987.9420625088077;;;0.4111846457464391;49.76453776037833
46382;BME280;66809;52.974;-2.514;2023-03-14T04:29:53;988.0139594875413;;;0.3886258967588618;49.7951900039632
46382;BME280;66809;52.974;-2.514;2023-03-14T04:31:53;988.0860227815207;;;0.3648871697484204;49.81537944477972
46382;BME280;66809;52.974;-2.514;2023-03-14T04:33:53;988.1562366675018;;;0.34320744531383324;49.84054229980753
46382;BME280;66809;52.974;-2.514;2023-03-14T04:35:54;988.224789746422;;;0.3151008080327186;49.849070382485564
46382;BME280;66809;52.974;-2.514;2023-03-14T04:37:53;988.2923558133461;;;0.2955396346288168;49.87303790703655
46382;BME280;66809;52.974;-2.514;2023-03-14T04:39:53;988.3583795017665;;;0.2767598373783301;49.8932640421155
46382;BME280;66809;52.974;-2.514;2023-03-14T04:41:53;988.4244504170144;;;0.26819587876583456;49.91529239345523
46382;BME280;66809;52.974;-2.514;2023-03-14T04:43:53;988.4901342024675;;;0.25214959060574155;49.92251572701248
46382;BME280;66809;52.974;-2.514;2023-03-14T04:45:54;988.5550497993939;;;0.2535074236758467;49.933981342465586
46382;BME280;66809;52.974;-2.514;2023-03-14T04:47:54;988.6197677216711;;;0.2551340902478339;49.927161900249146
46382;BME280;66809;52.974;-2.514;2023-03-14T04:49:53;988.6844785038058;;;0.2593819328752547;49.929289264978976
46382;BME280;66809;52.974;-2.514;2023-03-14T04:51:53;988.7490077500729;;;0.26328010380927647;49.939692906641845
46382;BME280;66809;52.974;-2.514;2023-03-14T04:53:54;988.8130047874474;;;0.2755375054953019;49.93622760772662
46382;BME280;66809;52.974;-2.514;2023-03-14T04:55:54;988.8784140500846;;;0.28944471572090136;49.91470972356876
46382;BME280;66809;52.974;-2.514;2023-03-14T04:57:53;988.9426379656246;;;0.3115095111700589;49.892173228063434
46382;BME280;66809;52.974;-2.514;2023-03-14T04:59:53;989.0068390902123;;;0.34416823468810304;49.85782197748784
46382;BME280;66809;52.974;-2.514;2023-03-14T05:01:53;989.0706189195415;;;0.3746037857682876;49.8103404391103
46382;BME280;66809;52.974;-2.514;2023-03-14T05:03:54;989.1347462541122;;;0.4231407055673094;49.74633793824072
46382;BME280;66809;52.974;-2.514;2023-03-14T05:05:53;989.1989106553017;;;0.4534585712546929;49.68270481403727
46382;BME280;66809;52.974;-2.514;2023-03-14T05:07:53;989.2626946760922;;;0.49571978334218125;49.632820936259144
46382;BME280;66809;52.974;-2.514;2023-03-14T05:09:53;989.3255269167463;;;0.5221142366907257;49.56505321011695
46382;BME280;66809;52.974;-2.514;2023-03-14T05:11:53;989.3892035901063;;;0.5454910428154687;49.5161419740401
46382;BME280;66809;52.974;-2.514;2023-03-14T05:13:53;989.4535646721795;;;0.5715362534527834;49.467727626355625
46382;BME280;66809;52.974;-2.514;2023-03-14T05:15:53;989.5175207709102;;;0.5804682461456543;49.4419298276543
46382;BME280;66809;52.974;-2.514;2023-03-14T05:17:53;989.5808866582167;;;0.5855899016877835;49.41879672385833
46382;BME280;66809;52.974;-2.514;2023-03-14T05:19:53;989.6428365365172;;;0.5838524097697647;49.40508094288626
46382;BME280;66809;52.974;-2.514;2023-03-14T05:21:53;989.7060186371174;;;0.5789446340154409;49.404998329058046
46382;BME280;66809;52.974;-2.514;2023-03-14T05:23:53;989.7677457326843;;;0.5687036350765275;49.398049506040515
46382;BME280;66809;52.974;-2.514;2023-03-14T05:25:54;989.8284499142513;;;0.5803590347822603;49.40177996928892
46382;BME280;66809;52.974;-2.514;2023-03-14T05:27:53;989.8868041692106;;;0.5716707653393417;49.384806092469084
46382;BME280;66809;52.974;-2.514;2023-03-14T05:29:53;989.9452722445326;;;0.5582526478721823;49.359842588663746
46382;BME280;66809;52.974;-2.514;2023-03-14T05:31:53;990.0052277704779;;;0.5347684578612774;49.35897451625974
46382;BME280;66809;52.974;-2.514;2023-03-14T05:33:54;990.0660275289481;;;0.5298957808607649;49.36483380593513
46382;BME280;66809;52.974;-2.514;2023-03-14T05:35:53;990.1271008194706;;;0.5284408367711184;49.37421672927597
46382;BME280;66809;52.974;-2.514;2023-03-14T05:37:53;990.1891217051688;;;0.5148126727474293;49.37975677561203
46382;BME280;66809;52.974;-2.514;2023-03-14T05:39:53;990.2528303368816;;;0.4874433127431346;49.3940299883467
46382;BME280;66809;52.974;-2.514;2023-03-14T05:41:53;990.3156088691966;;;0.442911976985975;49.42692668911536
46382;BME280;66809;52.974;-2.514;2023-03-14T05:43:53;990.378614794471;;;0.4130260439502359;49.465782305241824
46382;BME280;66809;52.974;-2.514;2023-03-14T05:45:53;990.4443331386209;;;0.34921097658747186;49.50661844641891
46382;BME280;66809;52.974;-2.514;2023-03-14T05:47:53;990.5094234260024;;;0.29365266584113014;49.564655648929936
46382;BME280;66809;52.974;-2.514;2023-03-14T05:49:53;990.5740907015527;;;0.23842191127892443;49.627294320634604
46382;BME280;66809;52.974;-2.514;2023-03-14T05:51:53;990.638495889512;;;0.1719236133834384;49.67435850094594
46382;BME280;66809;52.974;-2.514;2023-03-14T05:53:53;990.7039948211038;;;0.11201165525222335;49.7301252468364
46382;BME280;66809;52.974;-2.514;2023-03-14T05:55:54;990.76787600542;;;0.05165443532869755;49.795903889810944
46382;BME280;66809;52.974;-2.514;2023-03-14T05:57:53;990.8313310642271;;;-0.012728473326164644;49.84994823976989
46382;BME280;66809;52.974;-2.514;2023-03-14T05:59:53;990.8951009616993;;;-0.08937702290456873;49.91850661581707
46382;BME280;66809;52.974;-2.514;2023-03-14T06:01:54;990.9590299092155;;;-0.16660527735946393;50.01060535902807
46382;BME280;66809;52.974;-2.514;2023-03-14T06:03:53;991.0226053870259;;;-0.24270472741867755;50.11360295600464
46382;BME280;66809;52.974;-2.514;2023-03-14T06:05:54;991.0848363475536;;;-0.3177486152395641;50.19264407684572
46382;BME280;66809;52.974;-2.514;2023-03-14T06:07:53;991.1470904071648;;;-0.3905868596746878;50.27133819323573
46382;BME280;66809;52.974;-2.514;2023-03-14T06:09:53;991.2094346216252;;;-0.44733305350161134;50.341469074381195
46382;BME280;66809;52.974;-2.514;2023-03-14T06:11:53;991.2711952537993;;;-0.4795127474900945;50.40009578417029
46382;BME280;66809;52.974;-2.514;2023-03-14T06:13:53;991.3316390920087;;;-0.510336695213851;50.44489569917378
46382;BME280;66809;52.974;-2.514;2023-03-14T06:15:53;991.3900529454509;;;-0.5210230213887672;50.43941455880349
46382;BME280;66809;52.974;-2.514;2023-03-14T06:17:54;991.446301335275;;;-0.530323098932382;50.42110546556129
46382;BME280;66809;52.974;-2.514;2023-03-14T06:19:53;991.5007940833092;;;-0.5212682021546118;50.3929646817558
46382;BME280;66809;52.974;-2.514;2023-03-14T06:21:53;991.5528939032223;;;-0.49534218718904505;50.36668258507948
46382;BME280;66809;52.974;-2.514;2023-03-14T06:23:53;991.6056694520073;;;-0.4530642906108319;50.3401954951387
46382;BME280;66809;52.974;-2.514;2023-03-14T06:25:53;991.659355300457;;;-0.41925600620518927;50.27046761148544
46382;BME280;66809;52.974;-2.514;2023-03-14T06:27:53;991.7146644714974;;;-0.36617934279109615;50.1466654930159
46382;BME280;66809;52.974;-2.514;2023-03-14T06:29:54;991.7713791013742;;;-0.30249202566528155;50.030669704015644
46382;BME280;66809;52.974;-2.514;2023-03-14T06:31:53;991.8307918976633;;;-0.23488132787525634;49.89356979015228
46382;BME280;66809;52.974;-2.514;2023-03-14T06:33:53;991.8951577293308;;;-0.18161139772047122;49.73562623811258
46382;BME280;66809;52.974;-2.514;2023-03-14T06:35:53;991.9614983997916;;;-0.13212208687418284;49.58471104393436
46382;BME280;66809;52.974;-2.514;2023-03-14T06:37:53;992.0271311553818;;;-0.09001745087288703;49.434508380657874
46382;BME280;66809;52.974;-2.514;2023-03-14T06:39:53;992.0945423056787;;;-0.04023578325848898;49.28459916814122
46382;BME280;66809;52.974;-2.514;2023-03-14T06:41:53;992.1622542038297;;;0.022455294633341897;49.126640175470705
46382;BME280;66809;52.974;-2.514;2023-03-14T06:43:53;992.2297658362131;;;0.06224794276178078;48.97661448899673
46382;BME280;66809;52.974;-2.514;2023-03-14T06:45:53;992.2955656064261;;;0.12366501313419644;48.83035759473018
46382;BME280;66809;52.974;-2.514;2023-03-14T06:47:53;992.3620276814135;;;0.17839477330661851;48.68438046926571
46382;BME280;66809;52.974;-2.514;2023-03-14T06:49:53;992.4286866257946;;;0.22531149380963017;48.52727973320678
46382;BME280;66809;52.974;-2.514;2023-03-14T06:51:53;992.4950824364994;;;0.2880696563411986;48.3881161097302
46382;BME280;66809;52.974;-2.514;2023-03-14T06:53:53;992.5598470956812;;;0.33089350991294353;48.25239090643268
46382;BME280;66809;52.974;-2.514;2023-03-14T06:55:53;992.6248553544159;;;0.3647548494411891;48.12510422313767
46382;BME280;66809;52.974;-2.514;2023-03-14T06:57:53;992.6907678264558;;;0.41507090824640397;48.007793555527016
46382;BME280;66809;52.974;-2.514;2023-03-14T06:59:53;992.755815587249;;;0.4744869183552706;47.88671307386962
46382;BME280;66809;52.974;-2.514;2023-03-14T07:01:53;992.821646252236;;;0.5350959163992758;47.74593781669368
46382;BME280;66809;52.974;-2.514;2023-03-14T07:03:53;992.889641624261;;;0.5861276678489363;47.608183901839226
46382;BME280;66809;52.974;-2.514;2023-03-14T07:05:53;992.9574140046699;;;0.6478555938230955;47.48545835613425
46382;BME280;66809;52.974;-2.514;2023-03-14T07:07:53;993.0231396532265;;;0.7036577232829474;47.34516163137671
46382;BME280;66809;52.974;-2.514;2023-03-14T07:09:53;993.0884770863339;;;0.7624186181334263;47.229848426262556
46382;BME280;66809;52.974;-2.514;2023-03-14T07:11:53;993.1518517534604;;;0.809073636551867;47.104396695451705